Time;durP1;ratioP1;P1;durP2;ratioP2;P2;SDS_P1;SDS_P2;PMS_P1;PMS_P2;Temp;Humidity;BMP_temperature;BMP_pressure;BME280_temperature;BME280_humidity;BME280_pressure;Samples;Min_cycle;Max_cycle;Signal;HPM_P1;HPM_P2
2023/03/11 00:00:54;;;;;;;63.45;14.30;;;-0.40;99.90;;;;;;5009545;28;20595;-78
2023/03/11 00:03:22;;;;;;;23.20;11.23;;;-0.40;99.90;;;;;;5002064;28;20069;-78
2023/03/11 00:05:49;;;;;;;26.38;11.32;;;-0.40;99.90;;;;;;5007656;28;20076;-78
2023/03/11 00:08:19;;;;;;;22.63;10.15;;;-0.40;99.90;;;;;;5007083;28;20440;-78
2023/03/11 00:10:47;;;;;;;21.65;11.63;;;-0.40;99.90;;;;;;5011056;28;20162;-77
2023/03/11 00:13:15;;;;;;;29.83;12.77;;;-0.30;99.90;;;;;;5000493;28;20052;-78
2023/03/11 00:15:44;;;;;;;18.42;9.38;;;-0.40;99.90;;;;;;5006221;28;20060;-77
2023/03/11 00:18:11;;;;;;;24.70;12.80;;;-0.50;99.90;;;;;;5003815;28;20045;-77
2023/03/11 00:20:41;;;;;;;23.15;11.68;;;-0.50;99.90;;;;;;5001247;28;20048;-77
2023/03/11 00:23:09;;;;;;;22.48;11.65;;;-0.50;99.90;;;;;;4998515;28;20064;-77
2023/03/11 00:25:37;;;;;;;20.88;10.60;;;-0.50;99.90;;;;;;5010119;28;20037;-76
2023/03/11 00:28:09;;;;;;;22.52;11.70;;;-0.50;99.90;;;;;;4997603;28;20055;-76
2023/03/11 00:30:37;;;;;;;21.42;11.23;;;-0.40;99.90;;;;;;5013398;28;20045;-76
2023/03/11 00:33:04;;;;;;;23.10;10.43;;;-0.50;99.90;;;;;;5033269;28;20053;-75
2023/03/11 00:35:32;;;;;;;22.10;10.82;;;-0.50;99.90;;;;;;5009339;28;20370;-76
2023/03/11 00:38:07;;;;;;;18.95;10.45;;;-0.60;99.90;;;;;;5010642;28;20029;-76
2023/03/11 00:40:34;;;;;;;;;;;-0.50;99.90;;;;;;4990807;28;20048;-77
2023/03/11 00:43:02;;;;;;;23.08;10.25;;;-0.50;99.90;;;;;;5012103;28;20089;-76
2023/03/11 00:45:30;;;;;;;18.88;11.05;;;-0.50;99.90;;;;;;5029269;28;20479;-76
2023/03/11 00:47:57;;;;;;;25.05;11.27;;;-0.60;99.90;;;;;;5018672;28;20407;-76
2023/03/11 00:50:28;;;;;;;24.08;11.57;;;-0.60;99.90;;;;;;4999430;28;20264;-76
2023/03/11 00:52:55;;;;;;;20.27;10.82;;;-0.60;99.90;;;;;;5026316;28;20091;-73
2023/03/11 00:55:25;;;;;;;23.70;10.13;;;-0.70;99.90;;;;;;5011469;28;20451;-73
2023/03/11 00:57:54;;;;;;;22.17;11.40;;;-0.60;99.90;;;;;;5007633;28;20456;-75
2023/03/11 01:00:25;;;;;;;20.33;10.70;;;-0.60;99.90;;;;;;5013692;28;20050;-74
2023/03/11 01:02:53;;;;;;;26.23;10.50;;;-0.60;99.90;;;;;;4999324;28;20072;-73
2023/03/11 01:05:26;;;;;;;20.08;9.93;;;-0.60;99.90;;;;;;5010758;28;20516;-75
2023/03/11 01:07:52;;;;;;;21.90;11.18;;;-0.60;99.90;;;;;;4991758;28;20052;-75
2023/03/11 01:10:19;;;;;;;19.20;10.77;;;-0.70;99.90;;;;;;5001782;28;20038;-75
2023/03/11 01:12:46;;;;;;;23.38;12.45;;;-0.60;99.90;;;;;;5008612;28;20695;-75
2023/03/11 01:15:28;;;;;;;20.30;9.65;;;-0.60;99.90;;;;;;5003708;28;20529;-75
2023/03/11 01:17:58;;;;;;;23.38;11.30;;;-0.60;99.90;;;;;;5010006;28;20182;-75
2023/03/11 01:20:24;;;;;;;24.08;11.13;;;-0.60;99.90;;;;;;5014665;28;20058;-75
2023/03/11 01:22:51;;;;;;;20.52;10.23;;;-0.60;99.90;;;;;;4985757;28;20041;-74
2023/03/11 01:25:20;;;;;;;22.35;11.15;;;-0.60;99.90;;;;;;5012623;28;20452;-72
2023/03/11 01:27:47;;;;;;;19.90;11.48;;;-0.60;99.90;;;;;;5007802;28;20110;-72
2023/03/11 01:30:17;;;;;;;28.52;11.70;;;-0.70;99.90;;;;;;5007169;28;20487;-72
2023/03/11 01:32:44;;;;;;;19.95;10.13;;;-0.60;99.90;;;;;;5010699;28;20053;-72
2023/03/11 01:35:14;;;;;;;30.13;12.35;;;-0.60;99.90;;;;;;5002968;28;20113;-72
2023/03/11 01:37:41;;;;;;;22.25;11.20;;;-0.60;99.90;;;;;;5001011;28;20563;-71
2023/03/11 01:40:32;;;;;;;26.02;11.15;;;-0.70;99.90;;;;;;5004384;28;20117;-72
2023/03/11 01:43:04;;;;;;;23.17;11.05;;;-0.70;99.90;;;;;;5011007;28;20504;-72
2023/03/11 01:46:01;;;;;;;20.75;11.30;;;-0.60;99.90;;;;;;5003348;28;20469;-71
2023/03/11 01:48:29;;;;;;;29.00;12.85;;;-0.60;99.90;;;;;;4993654;28;20563;-74
2023/03/11 01:50:57;;;;;;;27.63;14.05;;;-0.60;99.90;;;;;;5006510;28;20044;-72
2023/03/11 01:53:24;;;;;;;29.20;13.07;;;-0.60;99.90;;;;;;5005870;28;20054;-70
2023/03/11 01:55:52;;;;;;;34.83;14.07;;;-0.60;99.90;;;;;;5001184;28;20046;-72
2023/03/11 01:58:25;;;;;;;25.02;12.73;;;-0.50;99.90;;;;;;4992912;28;20411;-72
2023/03/11 02:00:53;;;;;;;30.35;13.80;;;-0.60;99.90;;;;;;4997089;28;20068;-72
2023/03/11 02:03:26;;;;;;;28.50;13.43;;;-0.60;99.90;;;;;;4981243;28;20037;-72
2023/03/11 02:05:54;;;;;;;24.65;12.80;;;-0.50;99.90;;;;;;4984790;28;20355;-71
2023/03/11 02:08:22;;;;;;;25.95;11.15;;;-0.50;99.90;;;;;;4982572;28;20065;-74
2023/03/11 02:10:51;;;;;;;28.83;12.55;;;-0.50;99.90;;;;;;4988459;28;20049;-74
2023/03/11 02:13:19;;;;;;;29.33;12.55;;;-0.50;99.90;;;;;;4994487;28;20479;-71
2023/03/11 02:15:45;;;;;;;28.77;14.00;;;-0.50;99.90;;;;;;4982060;28;20041;-71
2023/03/11 02:18:14;;;;;;;26.83;11.70;;;-0.50;99.90;;;;;;4990063;28;20042;-73
2023/03/11 02:21:04;;;;;;;28.88;12.38;;;-0.50;99.90;;;;;;4990062;28;20045;-71
2023/03/11 02:23:44;;;;;;;25.15;12.60;;;-0.50;99.90;;;;;;4972973;28;20041;-71
2023/03/11 02:26:36;;;;;;;26.27;11.52;;;-0.50;99.90;;;;;;4991791;28;20431;-70
2023/03/11 02:29:05;;;;;;;22.92;12.15;;;-0.50;99.90;;;;;;5001989;28;20607;-71
2023/03/11 02:31:35;;;;;;;22.92;12.90;;;-0.50;99.90;;;;;;4981678;28;20186;-71
2023/03/11 02:34:06;;;;;;;24.05;12.18;;;-0.50;99.90;;;;;;4987102;28;20734;-70
2023/03/11 02:36:40;;;;;;;24.88;12.50;;;-0.50;99.90;;;;;;4989005;28;20056;-70
2023/03/11 02:39:10;;;;;;;25.35;10.45;;;-0.50;99.90;;;;;;4987208;28;20057;-70
2023/03/11 02:41:43;;;;;;;28.70;13.18;;;-0.50;99.90;;;;;;4983806;28;20045;-71
2023/03/11 02:44:12;;;;;;;26.65;11.10;;;-0.50;99.90;;;;;;4983556;28;20496;-72
2023/03/11 02:46:41;;;;;;;28.58;11.65;;;-0.50;99.90;;;;;;5008660;28;20041;-72
2023/03/11 02:49:10;;;;;;;23.60;11.45;;;-0.50;99.90;;;;;;4970730;28;20681;-72
2023/03/11 02:51:37;;;;;;;30.60;12.43;;;-0.40;99.90;;;;;;4986551;28;20131;-72
2023/03/11 02:54:05;;;;;;;27.02;11.63;;;-0.50;99.90;;;;;;4989029;28;20615;-71
2023/03/11 02:56:34;;;;;;;22.48;10.48;;;-0.50;99.90;;;;;;4988533;28;20299;-71
2023/03/11 02:59:00;;;;;;;24.75;11.88;;;-0.60;99.90;;;;;;4972656;28;20053;-71
2023/03/11 03:01:28;;;;;;;28.73;11.43;;;-0.50;99.90;;;;;;4991071;28;20044;-71
2023/03/11 03:03:55;;;;;;;26.20;12.35;;;-0.50;99.90;;;;;;5009238;28;20048;-71
2023/03/11 03:06:22;;;;;;;33.60;13.00;;;-0.50;99.90;;;;;;5011045;28;20410;-71
2023/03/11 03:08:50;;;;;;;25.63;10.13;;;-0.50;99.90;;;;;;4992554;28;20048;-70
2023/03/11 03:11:17;;;;;;;25.52;11.85;;;-0.50;99.90;;;;;;5008493;28;20443;-70
2023/03/11 03:13:45;;;;;;;29.75;12.50;;;-0.60;99.90;;;;;;5005326;28;20041;-71
2023/03/11 03:16:12;;;;;;;22.77;10.95;;;-0.50;99.90;;;;;;5008637;28;20079;-71
2023/03/11 03:18:39;;;;;;;32.50;11.75;;;-0.40;99.90;;;;;;4994801;28;20072;-71
2023/03/11 03:21:07;;;;;;;30.52;12.98;;;-0.40;99.90;;;;;;4991672;28;20102;-71
2023/03/11 03:23:36;;;;;;;29.85;12.27;;;-0.40;99.90;;;;;;5026239;28;20070;-71
2023/03/11 03:26:06;;;;;;;24.15;11.45;;;-0.50;99.90;;;;;;5002729;28;20055;-72
2023/03/11 03:28:36;;;;;;;22.23;11.30;;;-0.50;99.90;;;;;;5003731;28;20491;-70
2023/03/11 03:31:05;;;;;;;28.85;13.52;;;-0.60;99.90;;;;;;5001811;28;20495;-72
2023/03/11 03:33:31;;;;;;;27.88;13.43;;;-0.50;99.90;;;;;;5028895;28;20120;-71
2023/03/11 03:35:59;;;;;;;25.80;12.07;;;-0.50;99.90;;;;;;4997877;28;20446;-72
2023/03/11 03:38:29;;;;;;;24.67;11.65;;;-0.50;99.90;;;;;;5009841;28;20071;-70
2023/03/11 03:40:56;;;;;;;25.45;11.85;;;-0.60;99.90;;;;;;5029052;28;20259;-70
2023/03/11 03:43:23;;;;;;;25.17;11.70;;;-0.60;99.90;;;;;;5026705;28;20037;-70
2023/03/11 03:45:58;;;;;;;29.40;12.93;;;-0.50;99.90;;;;;;4996130;28;20096;-70
2023/03/11 03:48:28;;;;;;;29.63;11.98;;;-0.50;99.90;;;;;;5011850;28;20094;-71
2023/03/11 03:50:56;;;;;;;30.35;14.00;;;-0.50;99.90;;;;;;5001271;28;20048;-70
2023/03/11 03:53:22;;;;;;;25.52;12.63;;;-0.50;99.90;;;;;;5011563;28;20068;-73
2023/03/11 03:55:49;;;;;;;25.73;11.90;;;-0.40;99.90;;;;;;5005694;28;20114;-72
2023/03/11 03:58:17;;;;;;;28.95;13.07;;;-0.40;99.90;;;;;;5025971;28;20087;-73
2023/03/11 04:00:44;;;;;;;25.70;11.88;;;-0.50;99.90;;;;;;5008980;28;20117;-73
2023/03/11 04:03:11;;;;;;;25.02;12.70;;;-0.40;99.90;;;;;;5008557;28;20045;-73
2023/03/11 04:05:44;;;;;;;24.45;11.93;;;-0.50;99.90;;;;;;5012249;28;20337;-73
2023/03/11 04:08:12;;;;;;;27.25;11.65;;;-0.50;99.90;;;;;;5013409;28;20052;-73
2023/03/11 04:10:41;;;;;;;21.63;10.50;;;-0.60;99.90;;;;;;5009116;28;20128;-73
2023/03/11 04:13:07;;;;;;;23.95;11.60;;;-0.60;99.90;;;;;;4998742;28;20048;-70
2023/03/11 04:15:37;;;;;;;24.55;12.63;;;-0.60;99.90;;;;;;5005217;28;20041;-73
2023/03/11 04:18:04;;;;;;;25.58;11.75;;;-0.60;99.90;;;;;;4992388;28;20400;-72
2023/03/11 04:20:31;;;;;;;27.52;12.38;;;-0.60;99.90;;;;;;5014098;28;20045;-73
2023/03/11 04:22:57;;;;;;;28.77;11.65;;;-0.50;99.90;;;;;;5003700;28;20135;-72
2023/03/11 04:25:24;;;;;;;23.02;10.57;;;-0.60;99.90;;;;;;5013360;28;20299;-72
2023/03/11 04:27:51;;;;;;;23.25;10.88;;;-0.60;99.90;;;;;;4995008;28;20040;-70
2023/03/11 04:30:19;;;;;;;27.80;11.93;;;-0.60;99.90;;;;;;4989170;28;20496;-70
2023/03/11 04:32:47;;;;;;;26.83;12.48;;;-0.60;99.90;;;;;;5008315;28;20211;-73
2023/03/11 04:35:15;;;;;;;23.80;11.25;;;-0.50;99.90;;;;;;5027908;28;20049;-72
2023/03/11 04:37:42;;;;;;;27.05;11.52;;;-0.50;99.90;;;;;;5009207;28;20037;-73
2023/03/11 04:40:10;;;;;;;27.27;11.38;;;-0.50;99.90;;;;;;5003861;28;20064;-73
2023/03/11 04:42:38;;;;;;;24.10;10.32;;;-0.50;99.90;;;;;;5008752;28;20132;-74
2023/03/11 04:45:06;;;;;;;19.95;10.02;;;-0.50;99.90;;;;;;5005378;28;20049;-73
2023/03/11 04:47:33;;;;;;;20.20;9.80;;;-0.50;99.90;;;;;;5005515;28;20148;-73
2023/03/11 04:50:03;;;;;;;24.65;10.75;;;-0.50;99.90;;;;;;5001604;28;20499;-74
2023/03/11 04:52:30;;;;;;;28.13;10.15;;;-0.50;99.90;;;;;;5002101;28;20140;-73
2023/03/11 04:54:57;;;;;;;23.42;10.43;;;-0.50;99.90;;;;;;4999157;28;20045;-73
2023/03/11 04:57:24;;;;;;;25.90;10.63;;;-0.50;99.90;;;;;;5006934;28;20041;-71
2023/03/11 04:59:55;;;;;;;29.83;9.75;;;-0.40;99.90;;;;;;5008475;28;20490;-71
2023/03/11 05:02:21;;;;;;;27.95;10.55;;;-0.50;99.90;;;;;;5030956;23;20127;-76
2023/03/11 05:04:53;;;;;;;21.35;10.27;;;-0.50;99.90;;;;;;5029983;28;20037;-76
2023/03/11 05:07:20;;;;;;;19.15;10.63;;;-0.50;99.90;;;;;;5000715;28;20065;-76
2023/03/11 05:09:47;;;;;;;24.30;10.75;;;-0.40;99.90;;;;;;5018581;28;20110;-76
2023/03/11 05:12:14;;;;;;;17.30;9.75;;;-0.50;99.90;;;;;;5018448;28;20065;-75
2023/03/11 05:14:45;;;;;;;23.13;7.97;;;-0.50;99.90;;;;;;4999750;28;20041;-76
2023/03/11 05:17:13;;;;;;;20.67;9.98;;;-0.60;99.90;;;;;;5027744;28;20760;-75
2023/03/11 05:19:40;;;;;;;20.58;9.55;;;-0.60;99.90;;;;;;5012058;28;20053;-75
2023/03/11 05:22:14;;;;;;;23.05;10.15;;;-0.60;99.90;;;;;;5012584;28;20124;-75
2023/03/11 05:24:41;;;;;;;22.10;9.40;;;-0.60;99.90;;;;;;4993406;28;20100;-75
2023/03/11 05:27:08;;;;;;;18.85;9.25;;;-0.50;99.90;;;;;;4992029;28;20109;-75
2023/03/11 05:29:36;;;;;;;30.52;12.25;;;-0.60;99.90;;;;;;4995237;28;20148;-74
2023/03/11 05:32:05;;;;;;;23.05;10.18;;;-0.50;99.90;;;;;;4995670;28;20354;-74
2023/03/11 05:34:32;;;;;;;18.90;8.90;;;-0.50;99.90;;;;;;5014501;28;20567;-75
2023/03/11 05:37:00;;;;;;;19.20;9.40;;;-0.60;99.90;;;;;;4986511;28;20046;-75
2023/03/11 05:39:29;;;;;;;25.25;9.10;;;-0.60;99.90;;;;;;4990664;28;20351;-75
2023/03/11 05:41:56;;;;;;;18.17;8.10;;;-0.60;99.90;;;;;;5005747;28;20415;-75
2023/03/11 05:44:24;;;;;;;18.08;8.25;;;-0.60;99.90;;;;;;5014068;28;20049;-75
2023/03/11 05:46:51;;;;;;;17.30;7.90;;;-0.70;99.90;;;;;;5008444;28;20049;-75
2023/03/11 05:49:20;;;;;;;18.60;8.10;;;-0.60;99.90;;;;;;5029337;28;20534;-75
2023/03/11 05:51:49;;;;;;;24.35;9.15;;;-0.60;99.90;;;;;;5010588;28;20033;-75
2023/03/11 05:54:16;;;;;;;21.23;8.73;;;-0.60;99.90;;;;;;5014218;28;20503;-75
2023/03/11 05:56:46;;;;;;;21.98;8.90;;;-0.60;99.90;;;;;;5009264;28;20054;-75
2023/03/11 05:59:15;;;;;;;18.15;7.60;;;-0.60;99.90;;;;;;5008982;28;20069;-75
2023/03/11 06:01:44;;;;;;;19.05;8.63;;;-0.50;99.90;;;;;;5010055;28;20103;-75
2023/03/11 06:04:11;;;;;;;24.60;8.35;;;-0.60;99.90;;;;;;5015351;28;20756;-75
2023/03/11 06:06:40;;;;;;;19.83;9.23;;;-0.60;99.90;;;;;;5008594;28;20051;-75
2023/03/11 06:09:11;;;;;;;19.33;9.57;;;-0.60;99.90;;;;;;5015744;28;20044;-74
2023/03/11 06:11:38;;;;;;;15.60;9.02;;;-0.60;99.90;;;;;;5009993;28;20072;-75
2023/03/11 06:14:05;;;;;;;21.42;10.77;;;-0.60;99.90;;;;;;4996208;28;20037;-75
2023/03/11 06:16:32;;;;;;;22.55;9.05;;;-0.60;99.90;;;;;;5012229;28;20595;-75
2023/03/11 06:19:01;;;;;;;19.27;8.27;;;-0.60;99.90;;;;;;5014617;28;20033;-75
2023/03/11 06:21:32;;;;;;;16.05;8.00;;;-0.60;99.90;;;;;;5009197;28;20422;-75
2023/03/11 06:23:59;;;;;;;18.77;7.93;;;-0.60;99.90;;;;;;5007491;28;20135;-74
2023/03/11 06:26:27;;;;;;;15.98;7.72;;;-0.60;99.90;;;;;;4999000;28;20128;-75
2023/03/11 06:28:54;;;;;;;21.67;9.05;;;-0.60;99.90;;;;;;5009185;28;20388;-75
2023/03/11 06:31:26;;;;;;;20.98;8.52;;;-0.60;99.90;;;;;;5027270;28;20029;-75
2023/03/11 06:33:58;;;;;;;18.67;8.23;;;-0.60;99.90;;;;;;5001877;28;20045;-75
2023/03/11 06:36:25;;;;;;;21.70;7.65;;;-0.50;99.90;;;;;;5014110;28;20041;-75
2023/03/11 06:38:53;;;;;;;14.13;7.60;;;-0.50;99.90;;;;;;5004994;28;20116;-75
2023/03/11 06:41:23;;;;;;;24.67;9.23;;;-0.50;99.90;;;;;;4994938;28;20118;-75
2023/03/11 06:43:49;;;;;;;20.88;7.68;;;-0.50;99.90;;;;;;5004795;28;20144;-75
2023/03/11 06:46:19;;;;;;;17.05;7.50;;;-0.50;99.90;;;;;;5010200;28;20590;-75
2023/03/11 06:48:46;;;;;;;14.18;6.53;;;-0.50;99.90;;;;;;5004476;28;20045;-77
2023/03/11 06:51:15;;;;;;;13.50;6.22;;;-0.40;99.90;;;;;;5014591;28;20040;-77
2023/03/11 06:53:43;;;;;;;14.68;7.25;;;-0.40;99.90;;;;;;5010430;28;20436;-74
2023/03/11 06:56:12;;;;;;;12.52;6.75;;;-0.40;99.90;;;;;;5011188;28;21025;-74
2023/03/11 06:58:47;;;;;;;13.02;6.15;;;-0.40;99.90;;;;;;5011645;28;20037;-73
2023/03/11 07:01:20;;;;;;;34.15;8.18;;;-0.30;99.90;;;;;;5004588;28;20059;-74
2023/03/11 07:03:49;;;;;;;15.55;6.82;;;-0.30;99.90;;;;;;4995668;28;20045;-73
2023/03/11 07:06:18;;;;;;;22.30;6.80;;;-0.30;99.90;;;;;;5021423;28;20088;-73
2023/03/11 07:08:47;;;;;;;18.75;6.78;;;-0.30;99.90;;;;;;5011955;28;20041;-73
2023/03/11 07:11:19;;;;;;;11.43;5.60;;;-0.20;99.90;;;;;;5011649;28;20047;-74
2023/03/11 07:13:49;;;;;;;14.68;6.82;;;-0.20;99.90;;;;;;5001066;28;20033;-74
2023/03/11 07:16:19;;;;;;;13.80;6.10;;;-0.20;99.90;;;;;;5010425;28;20569;-76
2023/03/11 07:18:48;;;;;;;13.77;7.20;;;-0.30;99.90;;;;;;5020913;28;20041;-74
2023/03/11 07:21:20;;;;;;;9.88;6.50;;;-0.30;99.90;;;;;;5010641;28;20048;-74
2023/03/11 07:23:50;;;;;;;12.77;6.72;;;-0.20;99.90;;;;;;5026159;28;20048;-74
2023/03/11 07:26:17;;;;;;;12.95;6.35;;;-0.30;99.90;;;;;;5007980;28;20511;-76
2023/03/11 07:28:44;;;;;;;7.97;4.93;;;-0.10;99.90;;;;;;5029929;28;20131;-75
2023/03/11 07:31:14;;;;;;;10.48;6.15;;;-0.10;99.90;;;;;;5007803;28;20049;-75
2023/03/11 07:33:41;;;;;;;12.88;6.32;;;0.00;99.90;;;;;;5012284;28;20037;-75
2023/03/11 07:36:11;;;;;;;15.48;6.32;;;0.10;99.90;;;;;;5014207;28;20086;-76
2023/03/11 07:38:38;;;;;;;8.85;4.97;;;0.00;99.90;;;;;;5013883;28;20052;-74
2023/03/11 07:41:08;;;;;;;10.90;5.93;;;-0.10;99.90;;;;;;5003944;28;20098;-72
2023/03/11 07:43:34;;;;;;;16.20;5.53;;;0.00;99.90;;;;;;5024148;28;20041;-72
2023/03/11 07:46:15;;;;;;;12.43;5.32;;;0.00;99.90;;;;;;5026045;28;20047;-73
2023/03/11 07:48:42;;;;;;;12.18;5.05;;;0.10;99.90;;;;;;5028477;28;20534;-74
2023/03/11 07:51:23;;;;;;;16.45;5.38;;;0.10;99.90;;;;;;5022332;28;20128;-73
2023/03/11 07:53:53;;;;;;;11.88;5.13;;;0.00;99.90;;;;;;5022798;28;20045;-72
2023/03/11 07:56:22;;;;;;;16.23;6.10;;;0.10;99.90;;;;;;5025651;28;20403;-72
2023/03/11 07:58:49;;;;;;;13.00;7.03;;;0.10;99.90;;;;;;5029900;28;20558;-73
2023/03/11 08:01:21;;;;;;;15.68;5.38;;;0.00;99.90;;;;;;5013316;28;20135;-72
2023/03/11 08:03:51;;;;;;;10.50;5.22;;;0.00;99.90;;;;;;5026719;28;20048;-73
2023/03/11 08:06:20;;;;;;;13.50;5.88;;;0.00;99.90;;;;;;5008763;28;20454;-74
2023/03/11 08:08:48;;;;;;;9.13;5.47;;;0.00;99.90;;;;;;5021179;28;20527;-72
2023/03/11 08:11:16;;;;;;;11.93;4.85;;;0.00;99.90;;;;;;5008908;28;20053;-72
2023/03/11 08:13:45;;;;;;;19.73;5.55;;;0.10;99.90;;;;;;5010504;28;20044;-72
2023/03/11 08:16:19;;;;;;;13.88;7.13;;;0.10;99.90;;;;;;5028787;28;20037;-72
2023/03/11 08:18:48;;;;;;;9.18;5.30;;;0.10;99.90;;;;;;5011235;28;20053;-72
2023/03/11 08:21:17;;;;;;;13.18;5.90;;;0.10;99.90;;;;;;5025117;28;20570;-74
2023/03/11 08:23:47;;;;;;;8.77;4.85;;;0.10;99.90;;;;;;5018159;28;20056;-74
2023/03/11 08:26:16;;;;;;;11.23;4.68;;;0.10;99.90;;;;;;5021149;28;20033;-73
2023/03/11 08:28:43;;;;;;;14.60;5.20;;;0.10;99.90;;;;;;5011710;28;20061;-73
2023/03/11 08:31:18;;;;;;;11.55;4.88;;;0.10;99.90;;;;;;5020413;28;20852;-72
2023/03/11 08:33:51;;;;;;;10.18;4.15;;;0.20;99.90;;;;;;5023332;28;20072;-74
2023/03/11 08:36:18;;;;;;;11.38;5.50;;;0.30;99.90;;;;;;5030525;28;20123;-73
2023/03/11 08:38:45;;;;;;;15.60;7.85;;;0.30;99.90;;;;;;5028147;28;20037;-73
2023/03/11 08:41:12;;;;;;;11.23;4.18;;;0.30;99.90;;;;;;5027587;28;20053;-73
2023/03/11 08:43:40;;;;;;;14.18;5.75;;;0.20;99.90;;;;;;5010456;28;20037;-73
2023/03/11 08:46:07;;;;;;;15.32;5.18;;;0.40;99.90;;;;;;5021640;28;20360;-72
2023/03/11 08:48:36;;;;;;;10.52;5.68;;;0.50;99.90;;;;;;5004878;28;20392;-72
2023/03/11 08:51:11;;;;;;;13.27;6.00;;;0.60;99.90;;;;;;5007697;28;20238;-71
2023/03/11 08:53:39;;;;;;;8.90;5.30;;;0.60;99.90;;;;;;5027372;28;20183;-71
2023/03/11 08:56:07;;;;;;;7.68;5.10;;;0.60;99.90;;;;;;5012678;28;20059;-71
2023/03/11 08:58:34;;;;;;;10.63;5.85;;;0.70;99.90;;;;;;5033003;28;20124;-71
2023/03/11 09:01:01;;;;;;;14.75;6.55;;;0.80;99.90;;;;;;5026291;28;20302;-71
2023/03/11 09:03:31;;;;;;;14.55;7.53;;;0.90;99.90;;;;;;5014620;28;20763;-71
2023/03/11 09:06:05;;;;;;;9.55;5.57;;;0.90;99.90;;;;;;5001765;28;20041;-71
2023/03/11 09:08:32;;;;;;;9.23;6.60;;;1.10;99.90;;;;;;5013760;28;20307;-70
2023/03/11 09:10:59;;;;;;;14.18;7.80;;;1.10;99.90;;;;;;4995785;28;20042;-72
2023/03/11 09:13:26;;;;;;;10.73;9.48;;;1.20;99.90;;;;;;5014102;28;20158;-72
2023/03/11 09:15:53;;;;;;;8.40;6.13;;;1.60;99.90;;;;;;5008311;28;20128;-72
2023/03/11 09:18:20;;;;;;;9.70;6.40;;;1.60;99.90;;;;;;5024206;28;20539;-70
2023/03/11 09:20:47;;;;;;;12.57;6.95;;;1.70;99.90;;;;;;5003042;28;20519;-72
2023/03/11 09:23:16;;;;;;;8.38;6.22;;;1.70;99.90;;;;;;5013026;28;20045;-72
2023/03/11 09:25:43;;;;;;;13.70;8.88;;;1.60;99.90;;;;;;5003175;28;20048;-72
2023/03/11 09:28:10;;;;;;;10.27;6.05;;;1.90;99.90;;;;;;5031012;28;20045;-72
2023/03/11 09:30:37;;;;;;;8.50;4.85;;;2.00;99.90;;;;;;5007678;28;20109;-72
2023/03/11 09:33:03;;;;;;;16.77;6.40;;;2.20;99.90;;;;;;5011740;28;20052;-72
2023/03/11 09:35:30;;;;;;;7.25;4.93;;;2.40;99.90;;;;;;5030175;28;20047;-73
2023/03/11 09:37:57;;;;;;;11.18;6.03;;;2.30;99.90;;;;;;5010919;28;20072;-73
2023/03/11 09:40:26;;;;;;;9.60;5.50;;;2.30;99.90;;;;;;5015123;28;20067;-73
2023/03/11 09:43:11;;;;;;;14.60;7.40;;;2.20;99.90;;;;;;5012540;28;20072;-73
2023/03/11 09:45:48;;;;;;;8.43;5.75;;;2.00;99.90;;;;;;5023570;28;20139;-73
2023/03/11 09:48:18;;;;;;;7.00;5.68;;;2.00;99.90;;;;;;5012145;28;20044;-72
2023/03/11 09:51:02;;;;;;;7.85;4.85;;;2.20;99.90;;;;;;5024123;28;20198;-72
2023/03/11 09:53:41;;;;;;;7.10;5.18;;;2.40;99.90;;;;;;5029068;28;20205;-72
2023/03/11 09:56:16;;;;;;;12.35;6.18;;;2.80;99.90;;;;;;5008365;28;20044;-72
2023/03/11 09:58:50;;;;;;;10.48;5.25;;;3.00;99.90;;;;;;5012993;28;20091;-73
2023/03/11 10:01:23;;;;;;;9.07;4.78;;;3.20;99.90;;;;;;5023873;28;20071;-73
2023/03/11 10:03:53;;;;;;;9.35;5.65;;;3.50;99.90;;;;;;5028343;28;20550;-72
2023/03/11 10:06:25;;;;;;;10.13;5.00;;;3.40;99.90;;;;;;5007437;28;20055;-73
2023/03/11 10:09:12;;;;;;;11.93;4.25;;;3.40;99.90;;;;;;5010725;28;20344;-73
2023/03/11 10:12:08;;;;;;;8.18;4.40;;;3.50;99.90;;;;;;4976154;28;20053;-73
2023/03/11 10:14:57;;;;;;;6.80;4.38;;;3.50;99.90;;;;;;5004999;28;20045;-73
2023/03/11 10:17:56;;;;;;;8.18;4.63;;;3.50;99.90;;;;;;5026333;28;20045;-73
2023/03/11 10:20:35;;;;;;;6.38;4.88;;;3.90;99.90;;;;;;5026365;28;20045;-72
2023/03/11 10:23:17;;;;;;;9.35;6.85;;;3.90;99.90;;;;;;5009559;28;20434;-72
2023/03/11 10:26:04;;;;;;;18.63;11.93;;;4.00;99.90;;;;;;5006335;28;20056;-71
2023/03/11 10:28:37;;;;;;;15.95;14.55;;;3.80;99.90;;;;;;5013620;28;20051;-71
2023/03/11 10:31:35;;;;;;;18.13;15.88;;;3.60;99.90;;;;;;5026841;28;20041;-70
2023/03/11 10:34:15;;;;;;;17.08;16.02;;;3.40;99.90;;;;;;5020935;28;20249;-71
2023/03/11 10:37:06;;;;;;;23.13;21.48;;;3.80;99.90;;;;;;5020283;28;20053;-71
2023/03/11 10:39:33;;;;;;;31.63;29.70;;;4.00;99.90;;;;;;5026965;28;20033;-71
2023/03/11 10:42:03;;;;;;;32.42;30.55;;;3.90;99.90;;;;;;5024337;28;20474;-71
2023/03/11 10:44:40;;;;;;;31.63;29.27;;;3.80;99.90;;;;;;5031191;28;20442;-70
2023/03/11 10:47:19;;;;;;;34.50;32.72;;;3.80;99.90;;;;;;5004460;28;20057;-72
2023/03/11 10:49:46;;;;;;;34.75;32.15;;;3.80;99.90;;;;;;5027768;28;20045;-70
2023/03/11 10:52:13;;;;;;;34.45;32.40;;;3.90;99.90;;;;;;5020761;28;20033;-72
2023/03/11 10:54:45;;;;;;;31.55;29.95;;;3.60;99.90;;;;;;5011519;28;20037;-70
2023/03/11 10:57:24;;;;;;;34.60;32.40;;;3.40;99.90;;;;;;5021285;28;20056;-72
2023/03/11 10:59:54;;;;;;;35.60;33.63;;;3.60;99.90;;;;;;5027706;28;20045;-71
2023/03/11 11:02:37;;;;;;;36.97;34.70;;;3.60;99.90;;;;;;5048837;22;20041;-79
2023/03/11 11:05:29;;;;;;;39.13;36.75;;;3.30;99.90;;;;;;5044484;28;20203;-79
2023/03/11 11:08:11;;;;;;;35.97;33.58;;;3.40;99.90;;;;;;5032723;28;20039;-79
2023/03/11 11:11:02;;;;;;;35.55;33.20;;;3.50;99.90;;;;;;5027256;28;20033;-77
2023/03/11 11:13:33;;;;;;;33.58;30.95;;;3.70;99.90;;;;;;5036286;28;20094;-78
2023/03/11 11:16:19;;;;;;;33.03;30.85;;;3.90;99.90;;;;;;5036579;28;20108;-78
2023/03/11 11:18:49;;;;;;;23.88;22.17;;;3.60;99.90;;;;;;5053881;28;20271;-77
2023/03/11 11:21:33;;;;;;;25.17;23.50;;;3.80;99.90;;;;;;5032601;28;20064;-79
2023/03/11 11:24:21;;;;;;;33.47;30.83;;;3.90;99.90;;;;;;5034836;28;20068;-79
2023/03/11 11:27:06;;;;;;;33.95;31.80;;;3.80;99.90;;;;;;5061924;23;20102;-75
2023/03/11 11:29:33;;;;;;;31.75;29.80;;;3.60;99.90;;;;;;5038863;28;20044;-75
2023/03/11 11:32:20;;;;;;;27.85;26.17;;;3.90;99.90;;;;;;5029155;28;20583;-76
2023/03/11 11:34:59;;;;;;;30.75;28.70;;;4.10;99.90;;;;;;5016078;28;20069;-75
2023/03/11 11:37:30;;;;;;;32.17;30.05;;;3.80;99.90;;;;;;5012429;28;20038;-75
2023/03/11 11:40:09;;;;;;;36.42;34.17;;;4.10;99.90;;;;;;5018792;28;20050;-75
2023/03/11 11:42:40;;;;;;;35.38;32.50;;;4.10;99.90;;;;;;4991932;28;20492;-76
2023/03/11 11:45:10;;;;;;;35.25;33.45;;;3.80;99.90;;;;;;4997448;28;20045;-74
2023/03/11 11:47:42;;;;;;;33.75;32.00;;;4.00;99.90;;;;;;5001687;28;20059;-74
2023/03/11 11:50:22;;;;;;;33.17;31.33;;;4.00;99.90;;;;;;4998833;28;20197;-74
2023/03/11 11:52:56;;;;;;;34.28;32.67;;;4.10;99.90;;;;;;5014984;28;20056;-74
2023/03/11 11:55:29;;;;;;;37.35;34.78;;;3.90;99.90;;;;;;5010769;28;20103;-74
2023/03/11 11:57:57;;;;;;;32.58;30.60;;;3.80;99.90;;;;;;5000843;28;20045;-74
2023/03/11 12:00:47;;;;;;;35.97;33.88;;;4.10;99.90;;;;;;4994331;28;20034;-74
2023/03/11 12:03:16;;;;;;;39.38;37.58;;;4.10;99.90;;;;;;5001869;28;20100;-74
2023/03/11 12:05:58;;;;;;;33.08;31.02;;;4.00;99.90;;;;;;5009983;28;20125;-74
2023/03/11 12:08:31;;;;;;;32.85;31.15;;;3.90;99.90;;;;;;5006042;28;20053;-74
2023/03/11 12:11:05;;;;;;;37.45;35.42;;;4.40;99.90;;;;;;5010539;28;20804;-75
2023/03/11 12:13:48;;;;;;;31.85;30.45;;;4.50;99.90;;;;;;4998399;28;20038;-75
2023/03/11 12:16:43;;;;;;;32.70;31.05;;;4.60;99.90;;;;;;5003936;28;20046;-75
2023/03/11 12:19:10;;;;;;;32.70;30.40;;;4.90;99.90;;;;;;5014936;28;20048;-75
2023/03/11 12:22:09;;;;;;;33.08;30.73;;;4.90;99.90;;;;;;5016028;28;20220;-74
2023/03/11 12:25:04;;;;;;;31.92;29.98;;;4.80;99.90;;;;;;5016639;28;20575;-75
2023/03/11 12:27:33;;;;;;;33.55;31.60;;;4.20;99.90;;;;;;5024293;28;20065;-75
2023/03/11 12:30:13;;;;;;;30.05;28.45;;;4.10;99.90;;;;;;4994327;28;20455;-74
2023/03/11 12:32:47;;;;;;;32.00;30.17;;;4.30;99.90;;;;;;5017007;28;20064;-74
2023/03/11 12:35:26;;;;;;;30.90;28.70;;;4.40;99.90;;;;;;5020586;28;20056;-73
2023/03/11 12:38:06;;;;;;;30.15;28.55;;;4.20;99.90;;;;;;5017839;28;20069;-74
2023/03/11 12:40:48;;;;;;;31.88;30.02;;;4.20;99.90;;;;;;5007327;28;20039;-72
2023/03/11 12:43:32;;;;;;;32.15;30.23;;;4.00;99.90;;;;;;5003554;28;20048;-75
2023/03/11 12:46:01;;;;;;;30.55;28.65;;;3.80;99.90;;;;;;5017039;28;20297;-73
2023/03/11 12:48:48;;;;;;;31.77;30.17;;;3.80;99.90;;;;;;5023077;28;20045;-73
2023/03/11 12:51:33;;;;;;;29.92;27.88;;;3.80;99.90;;;;;;4998279;28;20037;-74
2023/03/11 12:54:31;;;;;;;30.38;28.38;;;4.20;99.90;;;;;;5028683;28;20302;-75
2023/03/11 12:57:00;;;;;;;29.02;27.25;;;4.40;99.90;;;;;;4998781;28;20574;-74